sensor_id;sensor_type;location;lat;lon;timestamp;pressure;altitude;pressure_sealevel;temperature;humidity
13869;BME280;7004;48.206;16.402;2023-11-18T00:00:35;100114.13;;;6.63;58.41
13869;BME280;7004;48.206;16.402;2023-11-18T00:03:01;100120.38;;;6.61;58.67
13869;BME280;7004;48.206;16.402;2023-11-18T00:05:27;100111.34;;;6.46;58.45
13869;BME280;7004;48.206;16.402;2023-11-18T00:07:54;100120.75;;;6.51;60.07
13869;BME280;7004;48.206;16.402;2023-11-18T00:10:21;100120.41;;;6.81;58.56
13869;BME280;7004;48.206;16.402;2023-11-18T00:12:47;100115.59;;;6.70;59.44
13869;BME280;7004;48.206;16.402;2023-11-18T00:15:14;100125.09;;;6.30;59.29
13869;BME280;7004;48.206;16.402;2023-11-18T00:17:41;100122.53;;;6.29;59.93
13869;BME280;7004;48.206;16.402;2023-11-18T00:20:08;100127.28;;;6.41;59.40
13869;BME280;7004;48.206;16.402;2023-11-18T00:22:35;100126.38;;;6.42;60.31
13869;BME280;7004;48.206;16.402;2023-11-18T00:25:05;100126.69;;;6.56;59.99
13869;BME280;7004;48.206;16.402;2023-11-18T00:27:34;100129.38;;;6.33;59.53
13869;BME280;7004;48.206;16.402;2023-11-18T00:30:03;100125.56;;;6.40;59.26
13869;BME280;7004;48.206;16.402;2023-11-18T00:32:31;100118.00;;;6.54;59.77
13869;BME280;7004;48.206;16.402;2023-11-18T00:34:58;100133.28;;;6.23;59.23
13869;BME280;7004;48.206;16.402;2023-11-18T00:37:24;100133.91;;;6.06;60.12
13869;BME280;7004;48.206;16.402;2023-11-18T00:39:50;100140.66;;;6.13;59.51
13869;BME280;7004;48.206;16.402;2023-11-18T00:42:16;100138.06;;;6.11;60.42
13869;BME280;7004;48.206;16.402;2023-11-18T00:44:42;100147.16;;;6.25;59.30
13869;BME280;7004;48.206;16.402;2023-11-18T00:47:08;100143.03;;;6.63;60.02
13869;BME280;7004;48.206;16.402;2023-11-18T00:49:34;100149.19;;;6.40;59.27
13869;BME280;7004;48.206;16.402;2023-11-18T00:52:00;100158.22;;;6.56;60.49
13869;BME280;7004;48.206;16.402;2023-11-18T00:54:27;100153.19;;;6.50;60.25
13869;BME280;7004;48.206;16.402;2023-11-18T00:56:53;100153.31;;;6.25;59.24
13869;BME280;7004;48.206;16.402;2023-11-18T00:59:19;100136.75;;;6.45;59.04
13869;BME280;7004;48.206;16.402;2023-11-18T01:01:46;100149.13;;;6.20;58.27
13869;BME280;7004;48.206;16.402;2023-11-18T01:04:12;100143.28;;;6.13;58.77
13869;BME280;7004;48.206;16.402;2023-11-18T01:06:38;100145.66;;;5.96;59.70
13869;BME280;7004;48.206;16.402;2023-11-18T01:09:04;100152.38;;;6.26;58.24
13869;BME280;7004;48.206;16.402;2023-11-18T01:11:32;100149.38;;;6.13;59.40
13869;BME280;7004;48.206;16.402;2023-11-18T01:13:58;100151.06;;;6.15;59.51
13869;BME280;7004;48.206;16.402;2023-11-18T01:16:25;100161.00;;;6.06;59.84
13869;BME280;7004;48.206;16.402;2023-11-18T01:18:51;100161.16;;;6.02;59.53
13869;BME280;7004;48.206;16.402;2023-11-18T01:21:17;100157.78;;;6.22;60.00
13869;BME280;7004;48.206;16.402;2023-11-18T01:23:43;100167.31;;;6.24;59.65
13869;BME280;7004;48.206;16.402;2023-11-18T01:26:11;100155.06;;;6.01;60.73
13869;BME280;7004;48.206;16.402;2023-11-18T01:28:38;100159.59;;;5.98;60.06
13869;BME280;7004;48.206;16.402;2023-11-18T01:31:09;100159.16;;;5.85;59.76
13869;BME280;7004;48.206;16.402;2023-11-18T01:33:37;100169.34;;;6.18;60.30
13869;BME280;7004;48.206;16.402;2023-11-18T01:36:08;100159.22;;;6.07;60.86
13869;BME280;7004;48.206;16.402;2023-11-18T01:38:38;100168.56;;;5.90;61.00
13869;BME280;7004;48.206;16.402;2023-11-18T01:41:06;100172.50;;;5.55;61.62
13869;BME280;7004;48.206;16.402;2023-11-18T01:43:33;100160.16;;;6.06;60.68
13869;BME280;7004;48.206;16.402;2023-11-18T01:46:03;100171.75;;;6.00;61.78
13869;BME280;7004;48.206;16.402;2023-11-18T01:48:33;100167.84;;;5.87;61.88
13869;BME280;7004;48.206;16.402;2023-11-18T01:51:01;100178.09;;;5.93;61.87
13869;BME280;7004;48.206;16.402;2023-11-18T01:53:31;100166.47;;;5.77;61.85
13869;BME280;7004;48.206;16.402;2023-11-18T01:55:57;100184.69;;;6.05;62.33
13869;BME280;7004;48.206;16.402;2023-11-18T01:58:24;100187.72;;;5.69;62.28
13869;BME280;7004;48.206;16.402;2023-11-18T02:00:51;100185.28;;;5.88;61.93
13869;BME280;7004;48.206;16.402;2023-11-18T02:03:18;100179.34;;;6.30;62.27
13869;BME280;7004;48.206;16.402;2023-11-18T02:05:44;100185.44;;;5.83;62.06
13869;BME280;7004;48.206;16.402;2023-11-18T02:08:10;100169.53;;;5.88;61.39
13869;BME280;7004;48.206;16.402;2023-11-18T02:11:01;100177.06;;;5.74;62.11
13869;BME280;7004;48.206;16.402;2023-11-18T02:13:40;100174.94;;;5.83;61.53
13869;BME280;7004;48.206;16.402;2023-11-18T02:16:08;100183.75;;;5.82;62.36
13869;BME280;7004;48.206;16.402;2023-11-18T02:18:35;100186.75;;;6.20;61.33
13869;BME280;7004;48.206;16.402;2023-11-18T02:21:07;100196.16;;;6.26;61.37
13869;BME280;7004;48.206;16.402;2023-11-18T02:23:34;100201.81;;;6.15;62.07
13869;BME280;7004;48.206;16.402;2023-11-18T02:26:00;100196.84;;;6.07;60.81
13869;BME280;7004;48.206;16.402;2023-11-18T02:28:27;100200.56;;;5.77;61.56
13869;BME280;7004;48.206;16.402;2023-11-18T02:31:25;100210.94;;;6.05;61.44
13869;BME280;7004;48.206;16.402;2023-11-18T02:34:16;100201.03;;;5.63;61.97
13869;BME280;7004;48.206;16.402;2023-11-18T02:36:49;100212.09;;;5.47;62.63
13869;BME280;7004;48.206;16.402;2023-11-18T02:39:22;100212.88;;;5.50;62.72
13869;BME280;7004;48.206;16.402;2023-11-18T02:41:52;100213.56;;;5.55;62.58
13869;BME280;7004;48.206;16.402;2023-11-18T02:44:23;100206.09;;;5.69;63.97
13869;BME280;7004;48.206;16.402;2023-11-18T02:46:51;100207.22;;;5.62;62.90
13869;BME280;7004;48.206;16.402;2023-11-18T02:49:17;100211.22;;;5.47;63.34
13869;BME280;7004;48.206;16.402;2023-11-18T02:51:43;100203.03;;;5.56;62.35
13869;BME280;7004;48.206;16.402;2023-11-18T02:54:10;100213.69;;;5.52;62.17
13869;BME280;7004;48.206;16.402;2023-11-18T02:56:39;100207.47;;;5.79;61.94
13869;BME280;7004;48.206;16.402;2023-11-18T02:59:06;100208.59;;;5.72;61.85
13869;BME280;7004;48.206;16.402;2023-11-18T03:01:35;100195.78;;;5.63;61.79
13869;BME280;7004;48.206;16.402;2023-11-18T03:04:01;100204.94;;;5.53;62.29
13869;BME280;7004;48.206;16.402;2023-11-18T03:06:29;100205.66;;;5.81;60.83
13869;BME280;7004;48.206;16.402;2023-11-18T03:08:55;100204.72;;;5.82;60.49
13869;BME280;7004;48.206;16.402;2023-11-18T03:11:21;100200.56;;;5.77;60.71
13869;BME280;7004;48.206;16.402;2023-11-18T03:13:48;100223.09;;;5.82;60.76
13869;BME280;7004;48.206;16.402;2023-11-18T03:16:15;100219.56;;;6.08;59.96
13869;BME280;7004;48.206;16.402;2023-11-18T03:18:45;100210.75;;;6.09;60.43
13869;BME280;7004;48.206;16.402;2023-11-18T03:21:14;100220.38;;;5.60;60.91
13869;BME280;7004;48.206;16.402;2023-11-18T03:23:42;100226.63;;;6.06;60.37
13869;BME280;7004;48.206;16.402;2023-11-18T03:26:09;100215.28;;;6.06;59.63
13869;BME280;7004;48.206;16.402;2023-11-18T03:28:37;100232.34;;;5.67;60.14
13869;BME280;7004;48.206;16.402;2023-11-18T03:31:05;100235.94;;;5.65;60.91
13869;BME280;7004;48.206;16.402;2023-11-18T03:33:31;100235.25;;;5.85;59.55
13869;BME280;7004;48.206;16.402;2023-11-18T03:35:58;100232.63;;;5.85;60.07
13869;BME280;7004;48.206;16.402;2023-11-18T03:38:25;100229.25;;;6.06;59.80
13869;BME280;7004;48.206;16.402;2023-11-18T03:40:51;100224.06;;;5.80;59.79
13869;BME280;7004;48.206;16.402;2023-11-18T03:43:19;100224.97;;;6.27;58.94
13869;BME280;7004;48.206;16.402;2023-11-18T03:45:46;100223.44;;;5.98;60.42
13869;BME280;7004;48.206;16.402;2023-11-18T03:48:12;100216.84;;;5.86;60.66
13869;BME280;7004;48.206;16.402;2023-11-18T03:50:41;100223.56;;;6.19;58.48
13869;BME280;7004;48.206;16.402;2023-11-18T03:53:07;100222.53;;;6.23;59.24
13869;BME280;7004;48.206;16.402;2023-11-18T03:55:33;100219.16;;;5.96;59.80
13869;BME280;7004;48.206;16.402;2023-11-18T03:57:59;100222.81;;;6.15;59.63
13869;BME280;7004;48.206;16.402;2023-11-18T04:00:25;100219.03;;;5.99;60.13
13869;BME280;7004;48.206;16.402;2023-11-18T04:02:59;100240.81;;;6.01;59.89
13869;BME280;7004;48.206;16.402;2023-11-18T04:05:25;100229.81;;;6.15;59.07
13869;BME280;7004;48.206;16.402;2023-11-18T04:07:51;100231.78;;;5.84;59.91
13869;BME280;7004;48.206;16.402;2023-11-18T04:10:18;100235.81;;;5.93;59.25
13869;BME280;7004;48.206;16.402;2023-11-18T04:12:45;100240.72;;;6.27;59.51
13869;BME280;7004;48.206;16.402;2023-11-18T04:15:14;100244.56;;;5.94;59.56
13869;BME280;7004;48.206;16.402;2023-11-18T04:17:43;100233.81;;;6.01;59.21
13869;BME280;7004;48.206;16.402;2023-11-18T04:20:11;100239.13;;;6.00;59.24
13869;BME280;7004;48.206;16.402;2023-11-18T04:22:41;100242.22;;;6.11;60.07
13869;BME280;7004;48.206;16.402;2023-11-18T04:25:09;100247.41;;;6.12;58.60
13869;BME280;7004;48.206;16.402;2023-11-18T04:27:37;100250.44;;;6.25;59.34
13869;BME280;7004;48.206;16.402;2023-11-18T04:30:04;100243.97;;;6.10;58.50
13869;BME280;7004;48.206;16.402;2023-11-18T04:32:31;100244.19;;;6.04;58.68
13869;BME280;7004;48.206;16.402;2023-11-18T04:35:00;100235.41;;;6.05;59.15
13869;BME280;7004;48.206;16.402;2023-11-18T04:37:34;100255.56;;;6.28;57.67
13869;BME280;7004;48.206;16.402;2023-11-18T04:40:01;100251.31;;;6.48;57.10
13869;BME280;7004;48.206;16.402;2023-11-18T04:42:28;100262.06;;;6.18;58.62
13869;BME280;7004;48.206;16.402;2023-11-18T04:44:59;100261.00;;;5.99;58.25
13869;BME280;7004;48.206;16.402;2023-11-18T04:47:24;100262.50;;;6.53;58.33
13869;BME280;7004;48.206;16.402;2023-11-18T04:49:51;100270.22;;;6.57;57.65
13869;BME280;7004;48.206;16.402;2023-11-18T04:52:18;100277.28;;;6.08;57.93
13869;BME280;7004;48.206;16.402;2023-11-18T04:54:44;100262.81;;;6.22;57.51
13869;BME280;7004;48.206;16.402;2023-11-18T04:57:14;100261.97;;;6.21;57.78
13869;BME280;7004;48.206;16.402;2023-11-18T04:59:41;100278.72;;;6.41;57.30
13869;BME280;7004;48.206;16.402;2023-11-18T05:02:08;100284.16;;;6.60;58.33
13869;BME280;7004;48.206;16.402;2023-11-18T05:04:34;100278.75;;;6.64;57.88
13869;BME280;7004;48.206;16.402;2023-11-18T05:07:01;100281.81;;;6.52;58.75
13869;BME280;7004;48.206;16.402;2023-11-18T05:09:28;100270.75;;;6.44;58.77
13869;BME280;7004;48.206;16.402;2023-11-18T05:11:54;100280.31;;;6.68;59.15
13869;BME280;7004;48.206;16.402;2023-11-18T05:14:21;100278.16;;;6.56;59.18
13869;BME280;7004;48.206;16.402;2023-11-18T05:16:47;100274.00;;;6.50;59.71
13869;BME280;7004;48.206;16.402;2023-11-18T05:19:13;100288.50;;;6.37;58.31
13869;BME280;7004;48.206;16.402;2023-11-18T05:21:40;100295.66;;;6.79;57.80
13869;BME280;7004;48.206;16.402;2023-11-18T05:24:06;100295.22;;;6.68;59.35
13869;BME280;7004;48.206;16.402;2023-11-18T05:26:32;100297.84;;;6.68;57.94
13869;BME280;7004;48.206;16.402;2023-11-18T05:29:00;100293.50;;;6.43;59.12
13869;BME280;7004;48.206;16.402;2023-11-18T05:31:27;100305.38;;;6.53;58.95
13869;BME280;7004;48.206;16.402;2023-11-18T05:33:54;100307.28;;;6.50;60.16
13869;BME280;7004;48.206;16.402;2023-11-18T05:36:21;100319.34;;;6.07;59.96
13869;BME280;7004;48.206;16.402;2023-11-18T05:38:54;100325.81;;;6.22;60.44
13869;BME280;7004;48.206;16.402;2023-11-18T05:41:20;100329.47;;;6.18;61.41
13869;BME280;7004;48.206;16.402;2023-11-18T05:43:54;100331.03;;;6.23;60.59
13869;BME280;7004;48.206;16.402;2023-11-18T05:46:24;100330.31;;;6.18;61.01
13869;BME280;7004;48.206;16.402;2023-11-18T05:48:52;100323.59;;;6.58;60.68
13869;BME280;7004;48.206;16.402;2023-11-18T05:51:20;100333.25;;;6.34;59.92
13869;BME280;7004;48.206;16.402;2023-11-18T05:53:47;100334.50;;;6.24;59.45
13869;BME280;7004;48.206;16.402;2023-11-18T05:56:14;100333.78;;;5.94;60.34
13869;BME280;7004;48.206;16.402;2023-11-18T05:58:43;100344.34;;;6.17;60.65
13869;BME280;7004;48.206;16.402;2023-11-18T06:01:09;100341.88;;;6.38;59.18
13869;BME280;7004;48.206;16.402;2023-11-18T06:03:38;100348.44;;;6.26;59.69
13869;BME280;7004;48.206;16.402;2023-11-18T06:06:09;100350.94;;;6.29;59.22
13869;BME280;7004;48.206;16.402;2023-11-18T06:08:39;100368.91;;;6.16;60.61
13869;BME280;7004;48.206;16.402;2023-11-18T06:11:10;100359.31;;;6.15;59.54
13869;BME280;7004;48.206;16.402;2023-11-18T06:13:45;100357.22;;;6.48;58.83
13869;BME280;7004;48.206;16.402;2023-11-18T06:16:18;100366.53;;;6.33;59.30
13869;BME280;7004;48.206;16.402;2023-11-18T06:18:54;100374.09;;;6.18;59.10
13869;BME280;7004;48.206;16.402;2023-11-18T06:21:23;100374.19;;;6.40;59.10
13869;BME280;7004;48.206;16.402;2023-11-18T06:23:58;100371.41;;;6.19;59.40
13869;BME280;7004;48.206;16.402;2023-11-18T06:26:33;100371.13;;;6.75;57.91
13869;BME280;7004;48.206;16.402;2023-11-18T06:29:02;100376.81;;;6.40;59.08
13869;BME280;7004;48.206;16.402;2023-11-18T06:31:30;100382.19;;;6.37;60.09
13869;BME280;7004;48.206;16.402;2023-11-18T06:33:56;100380.38;;;6.62;59.93
13869;BME280;7004;48.206;16.402;2023-11-18T06:36:22;100397.19;;;6.33;59.14
13869;BME280;7004;48.206;16.402;2023-11-18T06:38:51;100387.75;;;6.52;58.90
13869;BME280;7004;48.206;16.402;2023-11-18T06:41:20;100397.28;;;6.30;59.67
13869;BME280;7004;48.206;16.402;2023-11-18T06:43:49;100397.81;;;6.15;60.14
13869;BME280;7004;48.206;16.402;2023-11-18T06:46:30;100420.06;;;6.29;60.60
13869;BME280;7004;48.206;16.402;2023-11-18T06:49:01;100419.06;;;6.07;60.54
13869;BME280;7004;48.206;16.402;2023-11-18T06:51:36;100424.25;;;6.60;59.53
13869;BME280;7004;48.206;16.402;2023-11-18T06:54:05;100430.97;;;6.44;60.23
13869;BME280;7004;48.206;16.402;2023-11-18T06:56:36;100430.44;;;6.32;60.16
13869;BME280;7004;48.206;16.402;2023-11-18T06:59:09;100433.59;;;6.44;59.80
13869;BME280;7004;48.206;16.402;2023-11-18T07:01:42;100438.44;;;6.54;59.07
13869;BME280;7004;48.206;16.402;2023-11-18T07:04:11;100434.84;;;6.32;60.11
13869;BME280;7004;48.206;16.402;2023-11-18T07:06:37;100445.38;;;6.57;60.10
13869;BME280;7004;48.206;16.402;2023-11-18T07:09:08;100435.13;;;6.24;60.35
13869;BME280;7004;48.206;16.402;2023-11-18T07:11:41;100443.91;;;6.23;59.63
13869;BME280;7004;48.206;16.402;2023-11-18T07:14:08;100455.91;;;6.55;58.62
13869;BME280;7004;48.206;16.402;2023-11-18T07:16:35;100456.88;;;6.53;59.25
13869;BME280;7004;48.206;16.402;2023-11-18T07:19:01;100459.16;;;6.39;60.13
13869;BME280;7004;48.206;16.402;2023-11-18T07:21:29;100457.91;;;6.49;59.65
13869;BME280;7004;48.206;16.402;2023-11-18T07:23:56;100459.59;;;6.25;60.09
13869;BME280;7004;48.206;16.402;2023-11-18T07:26:22;100468.84;;;6.37;59.84
13869;BME280;7004;48.206;16.402;2023-11-18T07:28:50;100464.00;;;6.74;59.21
13869;BME280;7004;48.206;16.402;2023-11-18T07:31:18;100461.28;;;6.52;59.73
13869;BME280;7004;48.206;16.402;2023-11-18T07:33:45;100455.91;;;6.55;58.89
13869;BME280;7004;48.206;16.402;2023-11-18T07:36:16;100464.22;;;6.43;59.37
13869;BME280;7004;48.206;16.402;2023-11-18T07:38:43;100474.53;;;6.49;60.66
13869;BME280;7004;48.206;16.402;2023-11-18T07:41:09;100465.06;;;6.94;58.74
13869;BME280;7004;48.206;16.402;2023-11-18T07:43:35;100472.19;;;6.67;58.46
13869;BME280;7004;48.206;16.402;2023-11-18T07:46:03;100465.84;;;6.72;60.65
13869;BME280;7004;48.206;16.402;2023-11-18T07:48:29;100473.44;;;6.55;60.36
13869;BME280;7004;48.206;16.402;2023-11-18T07:50:57;100471.13;;;6.96;59.50
13869;BME280;7004;48.206;16.402;2023-11-18T07:53:23;100483.66;;;6.64;58.25
13869;BME280;7004;48.206;16.402;2023-11-18T07:55:49;100478.78;;;6.77;58.06
13869;BME280;7004;48.206;16.402;2023-11-18T07:58:16;100480.81;;;6.94;58.64
13869;BME280;7004;48.206;16.402;2023-11-18T08:00:44;100475.69;;;6.91;58.37
13869;BME280;7004;48.206;16.402;2023-11-18T08:03:15;100477.19;;;6.98;59.12
13869;BME280;7004;48.206;16.402;2023-11-18T08:05:43;100478.94;;;6.49;59.64
13869;BME280;7004;48.206;16.402;2023-11-18T08:08:13;100485.50;;;6.61;59.09
13869;BME280;7004;48.206;16.402;2023-11-18T08:10:43;100477.47;;;6.65;59.05
13869;BME280;7004;48.206;16.402;2023-11-18T08:13:11;100481.09;;;6.61;58.57
13869;BME280;7004;48.206;16.402;2023-11-18T08:15:42;100486.84;;;6.47;60.07
13869;BME280;7004;48.206;16.402;2023-11-18T08:18:08;100481.28;;;7.05;59.12
13869;BME280;7004;48.206;16.402;2023-11-18T08:20:38;100484.97;;;7.01;57.57
13869;BME280;7004;48.206;16.402;2023-11-18T08:23:04;100491.03;;;6.53;59.40
13869;BME280;7004;48.206;16.402;2023-11-18T08:25:31;100495.38;;;6.54;59.90
13869;BME280;7004;48.206;16.402;2023-11-18T08:28:00;100492.56;;;6.59;60.25
13869;BME280;7004;48.206;16.402;2023-11-18T08:30:27;100501.78;;;6.72;59.07
13869;BME280;7004;48.206;16.402;2023-11-18T08:32:53;100493.78;;;6.75;59.63
13869;BME280;7004;48.206;16.402;2023-11-18T08:35:19;100493.28;;;6.89;58.21
13869;BME280;7004;48.206;16.402;2023-11-18T08:37:47;100488.59;;;7.20;58.57
13869;BME280;7004;48.206;16.402;2023-11-18T08:40:14;100490.78;;;7.09;59.24
13869;BME280;7004;48.206;16.402;2023-11-18T08:42:46;100491.56;;;6.88;58.65
13869;BME280;7004;48.206;16.402;2023-11-18T08:45:17;100490.59;;;6.90;58.49
13869;BME280;7004;48.206;16.402;2023-11-18T08:47:48;100482.47;;;6.73;58.40
13869;BME280;7004;48.206;16.402;2023-11-18T08:50:15;100489.56;;;6.94;58.63
13869;BME280;7004;48.206;16.402;2023-11-18T08:52:46;100494.94;;;6.91;58.70
13869;BME280;7004;48.206;16.402;2023-11-18T08:55:19;100503.38;;;6.76;59.83
13869;BME280;7004;48.206;16.402;2023-11-18T08:57:50;100492.31;;;6.66;59.23
13869;BME280;7004;48.206;16.402;2023-11-18T09:00:29;100495.06;;;6.88;58.73
13869;BME280;7004;48.206;16.402;2023-11-18T09:03:15;100502.00;;;7.14;59.22
13869;BME280;7004;48.206;16.402;2023-11-18T09:05:58;100503.66;;;7.40;57.82
13869;BME280;7004;48.206;16.402;2023-11-18T09:08:35;100509.00;;;6.90;59.62
13869;BME280;7004;48.206;16.402;2023-11-18T09:11:07;100500.25;;;7.13;58.92
13869;BME280;7004;48.206;16.402;2023-11-18T09:13:34;100498.91;;;7.03;58.43
13869;BME280;7004;48.206;16.402;2023-11-18T09:16:08;100504.34;;;7.22;58.98
13869;BME280;7004;48.206;16.402;2023-11-18T09:18:39;100502.56;;;7.22;59.04
13869;BME280;7004;48.206;16.402;2023-11-18T09:21:06;100503.94;;;7.09;58.08
13869;BME280;7004;48.206;16.402;2023-11-18T09:23:34;100492.41;;;7.37;58.42
13869;BME280;7004;48.206;16.402;2023-11-18T09:26:01;100500.47;;;7.54;57.25
13869;BME280;7004;48.206;16.402;2023-11-18T09:28:30;100513.59;;;7.09;58.83
13869;BME280;7004;48.206;16.402;2023-11-18T09:30:57;100507.56;;;7.05;58.51
13869;BME280;7004;48.206;16.402;2023-11-18T09:33:26;100502.88;;;7.60;58.44
13869;BME280;7004;48.206;16.402;2023-11-18T09:36:03;100502.69;;;7.19;58.33
13869;BME280;7004;48.206;16.402;2023-11-18T09:38:32;100502.13;;;7.57;57.71
13869;BME280;7004;48.206;16.402;2023-11-18T09:41:01;100504.09;;;7.52;57.70
13869;BME280;7004;48.206;16.402;2023-11-18T09:43:37;100505.59;;;7.81;57.94
13869;BME280;7004;48.206;16.402;2023-11-18T09:46:29;100507.13;;;7.41;57.74
13869;BME280;7004;48.206;16.402;2023-11-18T09:49:27;100499.81;;;7.26;58.51
13869;BME280;7004;48.206;16.402;2023-11-18T09:51:59;100507.69;;;7.26;59.00
13869;BME280;7004;48.206;16.402;2023-11-18T09:57:37;100498.44;;;7.84;58.24
13869;BME280;7004;48.206;16.402;2023-11-18T10:00:11;100505.59;;;7.35;58.61
13869;BME280;7004;48.206;16.402;2023-11-18T10:02:48;100503.66;;;7.17;59.44
13869;BME280;7004;48.206;16.402;2023-11-18T10:05:17;100512.34;;;7.19;59.37
13869;BME280;7004;48.206;16.402;2023-11-18T10:07:47;100516.91;;;7.61;58.06
13869;BME280;7004;48.206;16.402;2023-11-18T10:10:14;100507.13;;;7.41;59.01
13869;BME280;7004;48.206;16.402;2023-11-18T10:12:46;100511.25;;;7.25;59.50
13869;BME280;7004;48.206;16.402;2023-11-18T10:15:21;100522.09;;;7.15;60.38
13869;BME280;7004;48.206;16.402;2023-11-18T10:17:51;100516.66;;;6.96;61.69
13869;BME280;7004;48.206;16.402;2023-11-18T10:23:15;100518.00;;;7.32;59.17
13869;BME280;7004;48.206;16.402;2023-11-18T10:25:52;100527.47;;;7.36;61.12
13869;BME280;7004;48.206;16.402;2023-11-18T10:28:33;100526.09;;;7.49;58.80
13869;BME280;7004;48.206;16.402;2023-11-18T10:31:03;100521.53;;;7.54;58.91
13869;BME280;7004;48.206;16.402;2023-11-18T10:33:31;100518.09;;;7.52;58.34
13869;BME280;7004;48.206;16.402;2023-11-18T10:35:59;100512.91;;;7.73;58.85
13869;BME280;7004;48.206;16.402;2023-11-18T10:38:39;100512.91;;;7.51;58.71
13869;BME280;7004;48.206;16.402;2023-11-18T10:41:16;100513.50;;;7.57;58.36
13869;BME280;7004;48.206;16.402;2023-11-18T10:43:43;100509.09;;;7.81;59.29
13869;BME280;7004;48.206;16.402;2023-11-18T10:46:12;100521.59;;;7.53;59.56
13869;BME280;7004;48.206;16.402;2023-11-18T10:48:47;100515.75;;;7.21;60.46
13869;BME280;7004;48.206;16.402;2023-11-18T10:51:16;100521.81;;;7.47;59.67
13869;BME280;7004;48.206;16.402;2023-11-18T10:53:43;100522.06;;;7.40;59.04
13869;BME280;7004;48.206;16.402;2023-11-18T10:56:27;100519.84;;;7.30;60.72
13869;BME280;7004;48.206;16.402;2023-11-18T10:59:12;100523.47;;;7.02;60.14
13869;BME280;7004;48.206;16.402;2023-11-18T11:01:43;100514.00;;;7.21;60.41
13869;BME280;7004;48.206;16.402;2023-11-18T11:04:13;100511.00;;;7.54;59.88
13869;BME280;7004;48.206;16.402;2023-11-18T11:06:45;100516.38;;;7.51;59.47
13869;BME280;7004;48.206;16.402;2023-11-18T11:09:24;100518.50;;;7.18;59.93
13869;BME280;7004;48.206;16.402;2023-11-18T11:11:57;100508.75;;;7.21;60.56
13869;BME280;7004;48.206;16.402;2023-11-18T11:14:37;100510.56;;;7.19;60.65
13869;BME280;7004;48.206;16.402;2023-11-18T11:17:13;100512.22;;;6.98;60.73
13869;BME280;7004;48.206;16.402;2023-11-18T11:19:53;100516.06;;;7.37;59.67
13869;BME280;7004;48.206;16.402;2023-11-18T11:22:43;100516.91;;;7.14;61.19
13869;BME280;7004;48.206;16.402;2023-11-18T11:25:31;100521.34;;;7.59;59.74
13869;BME280;7004;48.206;16.402;2023-11-18T11:28:10;100515.50;;;8.18;61.75
13869;BME280;7004;48.206;16.402;2023-11-18T11:30:46;100527.16;;;7.45;61.04
13869;BME280;7004;48.206;16.402;2023-11-18T11:34:23;100509.97;;;9.27;72.31
13869;BME280;7004;48.206;16.402;2023-11-18T11:36:46;100521.34;;;9.48;61.72
13869;BME280;7004;48.206;16.402;2023-11-18T11:39:13;100523.09;;;8.89;57.68
13869;BME280;7004;48.206;16.402;2023-11-18T11:41:51;100518.03;;;8.43;61.26
13869;BME280;7004;48.206;16.402;2023-11-18T11:44:17;100528.81;;;8.15;58.27
13869;BME280;7004;48.206;16.402;2023-11-18T11:46:50;100523.81;;;7.85;61.87
13869;BME280;7004;48.206;16.402;2023-11-18T11:49:23;100525.53;;;7.64;60.47
13869;BME280;7004;48.206;16.402;2023-11-18T11:52:19;100530.31;;;7.99;61.86
13869;BME280;7004;48.206;16.402;2023-11-18T11:55:09;100539.78;;;8.04;60.84
13869;BME280;7004;48.206;16.402;2023-11-18T11:57:39;100528.19;;;8.08;65.06
13869;BME280;7004;48.206;16.402;2023-11-18T12:00:12;100534.19;;;7.44;61.88
13869;BME280;7004;48.206;16.402;2023-11-18T12:02:49;100535.91;;;7.46;61.55
13869;BME280;7004;48.206;16.402;2023-11-18T12:05:18;100528.88;;;7.92;60.77
13869;BME280;7004;48.206;16.402;2023-11-18T12:07:46;100534.00;;;7.26;63.06
13869;BME280;7004;48.206;16.402;2023-11-18T12:10:13;100537.31;;;7.31;63.65
13869;BME280;7004;48.206;16.402;2023-11-18T12:12:49;100543.31;;;7.11;62.66
13869;BME280;7004;48.206;16.402;2023-11-18T12:15:56;100543.91;;;7.66;62.36
13869;BME280;7004;48.206;16.402;2023-11-18T12:19:33;100539.63;;;7.40;62.33
13869;BME280;7004;48.206;16.402;2023-11-18T12:22:20;100548.09;;;7.70;61.45
13869;BME280;7004;48.206;16.402;2023-11-18T12:33:05;100549.84;;;7.24;62.94
13869;BME280;7004;48.206;16.402;2023-11-18T12:36:17;100551.00;;;7.40;62.88
13869;BME280;7004;48.206;16.402;2023-11-18T12:42:01;100563.00;;;7.48;63.27
13869;BME280;7004;48.206;16.402;2023-11-18T12:47:53;100567.84;;;7.11;62.62
13869;BME280;7004;48.206;16.402;2023-11-18T12:50:21;100555.84;;;7.28;62.04
13869;BME280;7004;48.206;16.402;2023-11-18T12:52:54;100559.00;;;7.61;63.25
13869;BME280;7004;48.206;16.402;2023-11-18T12:55:20;100554.84;;;9.46;67.78
13869;BME280;7004;48.206;16.402;2023-11-18T12:57:51;100568.69;;;8.70;61.78
13869;BME280;7004;48.206;16.402;2023-11-18T13:00:20;100565.63;;;8.37;59.90
13869;BME280;7004;48.206;16.402;2023-11-18T13:02:56;100572.13;;;8.06;61.28
13869;BME280;7004;48.206;16.402;2023-11-18T13:05:24;100565.22;;;9.11;58.03
13869;BME280;7004;48.206;16.402;2023-11-18T13:07:58;100577.28;;;7.64;59.00
13869;BME280;7004;48.206;16.402;2023-11-18T13:10:27;100567.22;;;7.28;60.41
13869;BME280;7004;48.206;16.402;2023-11-18T13:12:54;100576.38;;;7.41;59.75
13869;BME280;7004;48.206;16.402;2023-11-18T13:15:20;100587.78;;;7.42;59.93
13869;BME280;7004;48.206;16.402;2023-11-18T13:18:00;100578.44;;;7.33;59.72
13869;BME280;7004;48.206;16.402;2023-11-18T13:20:28;100580.25;;;7.55;59.86
13869;BME280;7004;48.206;16.402;2023-11-18T13:22:55;100577.88;;;7.49;60.11
13869;BME280;7004;48.206;16.402;2023-11-18T13:25:24;100571.78;;;7.47;59.09
13869;BME280;7004;48.206;16.402;2023-11-18T13:27:51;100577.91;;;7.23;59.69
13869;BME280;7004;48.206;16.402;2023-11-18T13:30:18;100578.16;;;7.41;59.47
13869;BME280;7004;48.206;16.402;2023-11-18T13:32:46;100584.97;;;6.98;59.82
13869;BME280;7004;48.206;16.402;2023-11-18T13:35:16;100576.66;;;7.57;59.60
13869;BME280;7004;48.206;16.402;2023-11-18T13:37:48;100571.63;;;7.75;58.88